sensor_id;sensor_type;location;lat;lon;timestamp;P1;durP1;ratioP1;P2;durP2;ratioP2
24995;SDS011;13016;52.162;21.034;2022-12-26T00:00:00;26.30;;;15.10;;
24995;SDS011;13016;52.162;21.034;2022-12-26T00:02:25;28.40;;;16.90;;
24995;SDS011;13016;52.162;21.034;2022-12-26T00:04:57;24.80;;;15.70;;
24995;SDS011;13016;52.162;21.034;2022-12-26T00:07:22;28.00;;;16.60;;
24995;SDS011;13016;52.162;21.034;2022-12-26T00:09:47;28.20;;;16.40;;
24995;SDS011;13016;52.162;21.034;2022-12-26T00:12:18;32.00;;;19.10;;
24995;SDS011;13016;52.162;21.034;2022-12-26T00:14:44;30.10;;;16.20;;
24995;SDS011;13016;52.162;21.034;2022-12-26T00:17:09;27.70;;;16.10;;
24995;SDS011;13016;52.162;21.034;2022-12-26T00:19:34;25.20;;;15.50;;
24995;SDS011;13016;52.162;21.034;2022-12-26T00:21:59;30.80;;;16.60;;
24995;SDS011;13016;52.162;21.034;2022-12-26T00:24:25;30.10;;;16.20;;
24995;SDS011;13016;52.162;21.034;2022-12-26T00:26:50;28.90;;;16.60;;
24995;SDS011;13016;52.162;21.034;2022-12-26T00:29:15;29.70;;;17.30;;
24995;SDS011;13016;52.162;21.034;2022-12-26T00:31:40;26.50;;;15.80;;
24995;SDS011;13016;52.162;21.034;2022-12-26T00:34:06;28.10;;;17.30;;
24995;SDS011;13016;52.162;21.034;2022-12-26T00:36:31;33.10;;;16.90;;
24995;SDS011;13016;52.162;21.034;2022-12-26T00:38:58;31.50;;;17.00;;
24995;SDS011;13016;52.162;21.034;2022-12-26T00:41:24;26.90;;;16.40;;
24995;SDS011;13016;52.162;21.034;2022-12-26T00:43:51;29.60;;;16.30;;
24995;SDS011;13016;52.162;21.034;2022-12-26T00:46:17;27.00;;;15.90;;
24995;SDS011;13016;52.162;21.034;2022-12-26T00:48:46;28.10;;;16.40;;
24995;SDS011;13016;52.162;21.034;2022-12-26T00:51:32;26.20;;;15.20;;
24995;SDS011;13016;52.162;21.034;2022-12-26T00:53:57;28.20;;;16.10;;
24995;SDS011;13016;52.162;21.034;2022-12-26T00:56:22;30.20;;;16.20;;
24995;SDS011;13016;52.162;21.034;2022-12-26T00:58:48;31.10;;;16.90;;
24995;SDS011;13016;52.162;21.034;2022-12-26T01:01:17;25.50;;;15.90;;
24995;SDS011;13016;52.162;21.034;2022-12-26T01:03:44;25.10;;;16.10;;
24995;SDS011;13016;52.162;21.034;2022-12-26T01:06:11;28.90;;;15.30;;
24995;SDS011;13016;52.162;21.034;2022-12-26T01:08:38;28.40;;;16.50;;
24995;SDS011;13016;52.162;21.034;2022-12-26T01:11:04;28.10;;;15.60;;
24995;SDS011;13016;52.162;21.034;2022-12-26T01:13:32;26.10;;;15.40;;
24995;SDS011;13016;52.162;21.034;2022-12-26T01:15:58;27.00;;;16.20;;
24995;SDS011;13016;52.162;21.034;2022-12-26T01:18:24;26.50;;;15.30;;
24995;SDS011;13016;52.162;21.034;2022-12-26T01:20:49;26.70;;;15.60;;
24995;SDS011;13016;52.162;21.034;2022-12-26T01:23:15;25.40;;;15.20;;
24995;SDS011;13016;52.162;21.034;2022-12-26T01:25:41;28.40;;;15.80;;
24995;SDS011;13016;52.162;21.034;2022-12-26T01:28:06;24.80;;;16.10;;
24995;SDS011;13016;52.162;21.034;2022-12-26T01:30:31;24.30;;;15.00;;
24995;SDS011;13016;52.162;21.034;2022-12-26T01:32:57;25.50;;;16.10;;
24995;SDS011;13016;52.162;21.034;2022-12-26T01:35:22;28.20;;;15.70;;
24995;SDS011;13016;52.162;21.034;2022-12-26T01:37:47;25.90;;;15.60;;
24995;SDS011;13016;52.162;21.034;2022-12-26T01:40:12;26.10;;;15.60;;
24995;SDS011;13016;52.162;21.034;2022-12-26T01:42:38;27.30;;;15.80;;
24995;SDS011;13016;52.162;21.034;2022-12-26T01:47:49;26.60;;;15.60;;
24995;SDS011;13016;52.162;21.034;2022-12-26T01:52:50;26.90;;;16.10;;
24995;SDS011;13016;52.162;21.034;2022-12-26T01:55:17;24.20;;;15.10;;
24995;SDS011;13016;52.162;21.034;2022-12-26T01:58:06;31.00;;;17.20;;
24995;SDS011;13016;52.162;21.034;2022-12-26T02:00:36;27.30;;;15.90;;
24995;SDS011;13016;52.162;21.034;2022-12-26T02:03:03;28.80;;;16.20;;
24995;SDS011;13016;52.162;21.034;2022-12-26T02:05:30;26.80;;;16.00;;
24995;SDS011;13016;52.162;21.034;2022-12-26T02:07:56;28.30;;;16.70;;
24995;SDS011;13016;52.162;21.034;2022-12-26T02:10:21;28.20;;;16.60;;
24995;SDS011;13016;52.162;21.034;2022-12-26T02:12:51;26.30;;;16.60;;
24995;SDS011;13016;52.162;21.034;2022-12-26T02:15:17;31.40;;;18.70;;
24995;SDS011;13016;52.162;21.034;2022-12-26T02:17:43;30.20;;;16.50;;
24995;SDS011;13016;52.162;21.034;2022-12-26T02:20:14;32.40;;;17.50;;
24995;SDS011;13016;52.162;21.034;2022-12-26T02:34:19;27.50;;;17.40;;
24995;SDS011;13016;52.162;21.034;2022-12-26T02:45:01;30.60;;;17.80;;
24995;SDS011;13016;52.162;21.034;2022-12-26T02:53:44;29.00;;;17.60;;
24995;SDS011;13016;52.162;21.034;2022-12-26T02:56:25;30.70;;;17.90;;
24995;SDS011;13016;52.162;21.034;2022-12-26T02:58:59;27.80;;;16.90;;
24995;SDS011;13016;52.162;21.034;2022-12-26T03:01:46;27.60;;;17.40;;
24995;SDS011;13016;52.162;21.034;2022-12-26T03:04:33;26.30;;;15.70;;
24995;SDS011;13016;52.162;21.034;2022-12-26T03:07:11;28.30;;;16.30;;
24995;SDS011;13016;52.162;21.034;2022-12-26T03:12:35;25.40;;;16.60;;
24995;SDS011;13016;52.162;21.034;2022-12-26T03:15:14;27.30;;;15.60;;
24995;SDS011;13016;52.162;21.034;2022-12-26T03:18:00;22.70;;;15.10;;
24995;SDS011;13016;52.162;21.034;2022-12-26T03:20:30;25.70;;;15.60;;
24995;SDS011;13016;52.162;21.034;2022-12-26T03:23:02;23.10;;;14.20;;
24995;SDS011;13016;52.162;21.034;2022-12-26T03:31:37;22.60;;;14.40;;
24995;SDS011;13016;52.162;21.034;2022-12-26T03:37:25;20.90;;;13.30;;
24995;SDS011;13016;52.162;21.034;2022-12-26T04:02:50;18.70;;;12.00;;
24995;SDS011;13016;52.162;21.034;2022-12-26T04:05:19;19.50;;;12.80;;
24995;SDS011;13016;52.162;21.034;2022-12-26T04:07:53;22.20;;;13.90;;
24995;SDS011;13016;52.162;21.034;2022-12-26T04:10:23;20.50;;;12.60;;
24995;SDS011;13016;52.162;21.034;2022-12-26T04:18:55;18.00;;;12.00;;
24995;SDS011;13016;52.162;21.034;2022-12-26T04:21:33;21.00;;;12.80;;
24995;SDS011;13016;52.162;21.034;2022-12-26T04:26:57;20.10;;;12.70;;
24995;SDS011;13016;52.162;21.034;2022-12-26T04:29:27;20.40;;;13.30;;
24995;SDS011;13016;52.162;21.034;2022-12-26T04:32:12;19.90;;;13.00;;
24995;SDS011;13016;52.162;21.034;2022-12-26T04:37:47;18.70;;;13.30;;
24995;SDS011;13016;52.162;21.034;2022-12-26T04:40:15;19.30;;;11.80;;
24995;SDS011;13016;52.162;21.034;2022-12-26T04:42:50;18.10;;;12.50;;
24995;SDS011;13016;52.162;21.034;2022-12-26T04:45:17;21.80;;;12.90;;
24995;SDS011;13016;52.162;21.034;2022-12-26T04:47:44;20.50;;;13.80;;
24995;SDS011;13016;52.162;21.034;2022-12-26T04:50:09;19.10;;;12.40;;
24995;SDS011;13016;52.162;21.034;2022-12-26T04:52:35;19.50;;;12.20;;
24995;SDS011;13016;52.162;21.034;2022-12-26T04:55:00;19.40;;;13.10;;
24995;SDS011;13016;52.162;21.034;2022-12-26T04:57:25;18.20;;;12.50;;
24995;SDS011;13016;52.162;21.034;2022-12-26T04:59:50;18.50;;;11.90;;
24995;SDS011;13016;52.162;21.034;2022-12-26T05:02:16;16.60;;;11.00;;
24995;SDS011;13016;52.162;21.034;2022-12-26T05:04:41;18.90;;;11.40;;
24995;SDS011;13016;52.162;21.034;2022-12-26T05:07:10;16.20;;;11.30;;
24995;SDS011;13016;52.162;21.034;2022-12-26T05:09:48;16.70;;;10.70;;
24995;SDS011;13016;52.162;21.034;2022-12-26T05:12:16;17.20;;;11.40;;
24995;SDS011;13016;52.162;21.034;2022-12-26T05:14:41;14.50;;;10.50;;
24995;SDS011;13016;52.162;21.034;2022-12-26T05:17:06;15.10;;;10.60;;
24995;SDS011;13016;52.162;21.034;2022-12-26T05:19:32;15.50;;;10.60;;
24995;SDS011;13016;52.162;21.034;2022-12-26T05:21:57;16.00;;;11.00;;
24995;SDS011;13016;52.162;21.034;2022-12-26T05:24:25;13.40;;;9.20;;
24995;SDS011;13016;52.162;21.034;2022-12-26T05:26:57;14.60;;;10.20;;
24995;SDS011;13016;52.162;21.034;2022-12-26T05:29:23;15.60;;;10.50;;
24995;SDS011;13016;52.162;21.034;2022-12-26T05:31:54;14.70;;;9.40;;
24995;SDS011;13016;52.162;21.034;2022-12-26T05:34:19;14.00;;;9.90;;
24995;SDS011;13016;52.162;21.034;2022-12-26T05:36:51;14.30;;;9.50;;
24995;SDS011;13016;52.162;21.034;2022-12-26T05:39:18;15.10;;;9.70;;
24995;SDS011;13016;52.162;21.034;2022-12-26T05:41:59;13.60;;;9.30;;
24995;SDS011;13016;52.162;21.034;2022-12-26T05:44:24;15.40;;;9.90;;
24995;SDS011;13016;52.162;21.034;2022-12-26T05:46:49;14.90;;;9.70;;
24995;SDS011;13016;52.162;21.034;2022-12-26T05:49:14;13.30;;;9.70;;
24995;SDS011;13016;52.162;21.034;2022-12-26T05:51:40;12.80;;;8.80;;
24995;SDS011;13016;52.162;21.034;2022-12-26T05:54:05;12.30;;;8.80;;
24995;SDS011;13016;52.162;21.034;2022-12-26T05:56:30;13.40;;;9.10;;
24995;SDS011;13016;52.162;21.034;2022-12-26T05:58:56;12.30;;;9.00;;
24995;SDS011;13016;52.162;21.034;2022-12-26T06:01:23;10.80;;;7.80;;
24995;SDS011;13016;52.162;21.034;2022-12-26T06:03:50;12.10;;;7.90;;
24995;SDS011;13016;52.162;21.034;2022-12-26T06:06:21;11.40;;;7.80;;
24995;SDS011;13016;52.162;21.034;2022-12-26T06:08:49;11.20;;;7.60;;
24995;SDS011;13016;52.162;21.034;2022-12-26T06:11:16;11.00;;;7.50;;
24995;SDS011;13016;52.162;21.034;2022-12-26T06:13:42;11.30;;;7.80;;
24995;SDS011;13016;52.162;21.034;2022-12-26T06:16:09;9.20;;;7.00;;
24995;SDS011;13016;52.162;21.034;2022-12-26T06:18:37;8.40;;;7.20;;
24995;SDS011;13016;52.162;21.034;2022-12-26T06:21:06;10.10;;;7.30;;
24995;SDS011;13016;52.162;21.034;2022-12-26T06:23:33;9.10;;;6.90;;
24995;SDS011;13016;52.162;21.034;2022-12-26T06:25:59;10.00;;;6.50;;
24995;SDS011;13016;52.162;21.034;2022-12-26T06:28:26;9.20;;;6.60;;
24995;SDS011;13016;52.162;21.034;2022-12-26T06:30:52;9.70;;;6.90;;
24995;SDS011;13016;52.162;21.034;2022-12-26T06:36:21;7.50;;;6.10;;
24995;SDS011;13016;52.162;21.034;2022-12-26T06:38:48;8.00;;;6.10;;
24995;SDS011;13016;52.162;21.034;2022-12-26T06:41:15;7.80;;;6.00;;
24995;SDS011;13016;52.162;21.034;2022-12-26T06:43:51;9.80;;;6.60;;
24995;SDS011;13016;52.162;21.034;2022-12-26T06:46:19;9.80;;;6.40;;
24995;SDS011;13016;52.162;21.034;2022-12-26T06:49:00;9.20;;;6.90;;
24995;SDS011;13016;52.162;21.034;2022-12-26T06:54:39;10.00;;;7.10;;
24995;SDS011;13016;52.162;21.034;2022-12-26T06:57:05;10.20;;;7.60;;
24995;SDS011;13016;52.162;21.034;2022-12-26T06:59:30;9.60;;;7.10;;
24995;SDS011;13016;52.162;21.034;2022-12-26T07:01:55;9.30;;;7.20;;
24995;SDS011;13016;52.162;21.034;2022-12-26T07:04:21;9.30;;;7.10;;
24995;SDS011;13016;52.162;21.034;2022-12-26T07:06:46;11.40;;;7.60;;
24995;SDS011;13016;52.162;21.034;2022-12-26T07:09:12;9.20;;;7.20;;
24995;SDS011;13016;52.162;21.034;2022-12-26T07:11:41;9.80;;;7.30;;
24995;SDS011;13016;52.162;21.034;2022-12-26T07:14:09;10.10;;;6.90;;
24995;SDS011;13016;52.162;21.034;2022-12-26T07:16:36;9.70;;;7.60;;
24995;SDS011;13016;52.162;21.034;2022-12-26T07:19:02;10.00;;;6.90;;
24995;SDS011;13016;52.162;21.034;2022-12-26T07:21:28;9.80;;;6.90;;
24995;SDS011;13016;52.162;21.034;2022-12-26T07:24:12;10.50;;;7.10;;
24995;SDS011;13016;52.162;21.034;2022-12-26T07:30:13;10.40;;;7.70;;
24995;SDS011;13016;52.162;21.034;2022-12-26T07:32:38;10.90;;;7.00;;
24995;SDS011;13016;52.162;21.034;2022-12-26T07:35:03;8.20;;;6.60;;
24995;SDS011;13016;52.162;21.034;2022-12-26T07:37:31;10.80;;;6.80;;
24995;SDS011;13016;52.162;21.034;2022-12-26T07:39:57;9.40;;;7.00;;
24995;SDS011;13016;52.162;21.034;2022-12-26T07:42:22;8.70;;;6.70;;
24995;SDS011;13016;52.162;21.034;2022-12-26T07:44:59;11.40;;;7.50;;
24995;SDS011;13016;52.162;21.034;2022-12-26T07:47:25;10.00;;;7.10;;
24995;SDS011;13016;52.162;21.034;2022-12-26T07:49:50;11.90;;;7.70;;
24995;SDS011;13016;52.162;21.034;2022-12-26T07:52:15;9.60;;;7.10;;
24995;SDS011;13016;52.162;21.034;2022-12-26T07:54:40;11.10;;;8.30;;
24995;SDS011;13016;52.162;21.034;2022-12-26T07:57:06;12.30;;;7.80;;
24995;SDS011;13016;52.162;21.034;2022-12-26T07:59:43;10.30;;;7.00;;
24995;SDS011;13016;52.162;21.034;2022-12-26T08:02:09;11.30;;;7.30;;
24995;SDS011;13016;52.162;21.034;2022-12-26T08:07:22;9.50;;;7.10;;
24995;SDS011;13016;52.162;21.034;2022-12-26T08:09:47;9.50;;;7.30;;
24995;SDS011;13016;52.162;21.034;2022-12-26T08:12:13;12.10;;;7.50;;
24995;SDS011;13016;52.162;21.034;2022-12-26T08:17:41;10.30;;;7.30;;
24995;SDS011;13016;52.162;21.034;2022-12-26T08:20:06;11.20;;;7.60;;
24995;SDS011;13016;52.162;21.034;2022-12-26T08:22:31;11.40;;;7.70;;
24995;SDS011;13016;52.162;21.034;2022-12-26T08:24:57;12.40;;;7.90;;
24995;SDS011;13016;52.162;21.034;2022-12-26T08:27:22;11.80;;;8.00;;
24995;SDS011;13016;52.162;21.034;2022-12-26T08:29:47;12.00;;;7.60;;
24995;SDS011;13016;52.162;21.034;2022-12-26T08:35:25;11.50;;;8.00;;
24995;SDS011;13016;52.162;21.034;2022-12-26T08:37:51;10.40;;;7.20;;
24995;SDS011;13016;52.162;21.034;2022-12-26T08:46:23;9.70;;;7.40;;
24995;SDS011;13016;52.162;21.034;2022-12-26T08:48:48;13.00;;;7.40;;
24995;SDS011;13016;52.162;21.034;2022-12-26T08:51:18;10.30;;;7.20;;
24995;SDS011;13016;52.162;21.034;2022-12-26T08:53:46;13.00;;;8.30;;
24995;SDS011;13016;52.162;21.034;2022-12-26T08:56:14;11.20;;;7.80;;
24995;SDS011;13016;52.162;21.034;2022-12-26T08:58:41;12.00;;;8.30;;
24995;SDS011;13016;52.162;21.034;2022-12-26T09:01:14;12.70;;;8.30;;
24995;SDS011;13016;52.162;21.034;2022-12-26T09:03:42;12.10;;;8.20;;
24995;SDS011;13016;52.162;21.034;2022-12-26T09:06:09;10.70;;;7.60;;
24995;SDS011;13016;52.162;21.034;2022-12-26T09:08:36;11.80;;;7.70;;
24995;SDS011;13016;52.162;21.034;2022-12-26T09:11:02;12.90;;;8.60;;
24995;SDS011;13016;52.162;21.034;2022-12-26T09:16:25;12.00;;;8.60;;
24995;SDS011;13016;52.162;21.034;2022-12-26T09:19:14;12.30;;;8.10;;
24995;SDS011;13016;52.162;21.034;2022-12-26T09:21:40;13.20;;;9.30;;
24995;SDS011;13016;52.162;21.034;2022-12-26T09:24:06;12.50;;;8.20;;
24995;SDS011;13016;52.162;21.034;2022-12-26T09:26:35;11.40;;;8.10;;
24995;SDS011;13016;52.162;21.034;2022-12-26T09:29:01;14.80;;;8.90;;
24995;SDS011;13016;52.162;21.034;2022-12-26T09:31:28;12.00;;;7.60;;
24995;SDS011;13016;52.162;21.034;2022-12-26T09:33:55;12.40;;;8.80;;
24995;SDS011;13016;52.162;21.034;2022-12-26T09:36:22;12.10;;;8.20;;
24995;SDS011;13016;52.162;21.034;2022-12-26T09:38:49;12.20;;;8.30;;
24995;SDS011;13016;52.162;21.034;2022-12-26T09:50:08;13.30;;;8.60;;
24995;SDS011;13016;52.162;21.034;2022-12-26T09:52:52;14.40;;;8.90;;
24995;SDS011;13016;52.162;21.034;2022-12-26T10:03:45;15.10;;;9.90;;
24995;SDS011;13016;52.162;21.034;2022-12-26T10:06:36;15.00;;;9.10;;
24995;SDS011;13016;52.162;21.034;2022-12-26T10:14:50;13.70;;;9.10;;
24995;SDS011;13016;52.162;21.034;2022-12-26T10:20:29;16.90;;;9.60;;
24995;SDS011;13016;52.162;21.034;2022-12-26T10:23:12;14.90;;;10.00;;
24995;SDS011;13016;52.162;21.034;2022-12-26T10:25:46;14.50;;;9.70;;
24995;SDS011;13016;52.162;21.034;2022-12-26T10:28:17;15.80;;;10.10;;
24995;SDS011;13016;52.162;21.034;2022-12-26T10:30:52;16.10;;;10.80;;
24995;SDS011;13016;52.162;21.034;2022-12-26T10:33:41;15.60;;;10.80;;
24995;SDS011;13016;52.162;21.034;2022-12-26T10:36:14;15.30;;;10.60;;
24995;SDS011;13016;52.162;21.034;2022-12-26T10:38:46;17.30;;;10.60;;
24995;SDS011;13016;52.162;21.034;2022-12-26T10:41:19;15.30;;;9.90;;
24995;SDS011;13016;52.162;21.034;2022-12-26T10:43:49;18.60;;;10.80;;
24995;SDS011;13016;52.162;21.034;2022-12-26T10:48:46;16.90;;;11.50;;
24995;SDS011;13016;52.162;21.034;2022-12-26T10:51:11;19.60;;;11.50;;
24995;SDS011;13016;52.162;21.034;2022-12-26T10:53:39;16.60;;;10.70;;
24995;SDS011;13016;52.162;21.034;2022-12-26T10:56:08;16.30;;;10.30;;
24995;SDS011;13016;52.162;21.034;2022-12-26T10:58:34;17.30;;;11.20;;
24995;SDS011;13016;52.162;21.034;2022-12-26T11:04:02;17.00;;;11.50;;
24995;SDS011;13016;52.162;21.034;2022-12-26T11:06:35;17.10;;;10.90;;
24995;SDS011;13016;52.162;21.034;2022-12-26T11:09:02;17.70;;;11.00;;
24995;SDS011;13016;52.162;21.034;2022-12-26T11:11:34;17.50;;;10.80;;
24995;SDS011;13016;52.162;21.034;2022-12-26T11:17:24;17.40;;;11.30;;
24995;SDS011;13016;52.162;21.034;2022-12-26T11:20:07;17.20;;;11.80;;
24995;SDS011;13016;52.162;21.034;2022-12-26T11:22:47;20.90;;;11.70;;
24995;SDS011;13016;52.162;21.034;2022-12-26T11:27:46;19.50;;;10.80;;
24995;SDS011;13016;52.162;21.034;2022-12-26T11:33:01;16.70;;;10.70;;
24995;SDS011;13016;52.162;21.034;2022-12-26T11:35:29;18.10;;;11.60;;
24995;SDS011;13016;52.162;21.034;2022-12-26T11:37:55;16.30;;;11.30;;
24995;SDS011;13016;52.162;21.034;2022-12-26T11:40:28;18.50;;;10.80;;
24995;SDS011;13016;52.162;21.034;2022-12-26T11:42:58;18.00;;;11.10;;
24995;SDS011;13016;52.162;21.034;2022-12-26T11:45:29;19.50;;;11.70;;
24995;SDS011;13016;52.162;21.034;2022-12-26T11:47:55;15.50;;;9.80;;
24995;SDS011;13016;52.162;21.034;2022-12-26T11:50:26;14.50;;;9.10;;
24995;SDS011;13016;52.162;21.034;2022-12-26T12:03:00;12.20;;;8.20;;
24995;SDS011;13016;52.162;21.034;2022-12-26T12:11:15;11.50;;;7.00;;
24995;SDS011;13016;52.162;21.034;2022-12-26T12:22:23;14.40;;;7.70;;
24995;SDS011;13016;52.162;21.034;2022-12-26T12:27:45;12.20;;;7.90;;
24995;SDS011;13016;52.162;21.034;2022-12-26T12:35:55;12.10;;;8.20;;
24995;SDS011;13016;52.162;21.034;2022-12-26T12:44:29;25.90;;;18.80;;
24995;SDS011;13016;52.162;21.034;2022-12-26T12:58:36;13.50;;;8.60;;
24995;SDS011;13016;52.162;21.034;2022-12-26T13:01:28;12.80;;;7.80;;
24995;SDS011;13016;52.162;21.034;2022-12-26T13:04:08;13.10;;;8.00;;
24995;SDS011;13016;52.162;21.034;2022-12-26T13:09:32;13.80;;;7.90;;
24995;SDS011;13016;52.162;21.034;2022-12-26T13:12:15;12.30;;;7.90;;
24995;SDS011;13016;52.162;21.034;2022-12-26T13:14:53;13.50;;;8.40;;
24995;SDS011;13016;52.162;21.034;2022-12-26T13:18:22;14.60;;;8.60;;
24995;SDS011;13016;52.162;21.034;2022-12-26T13:23:08;11.50;;;7.70;;
24995;SDS011;13016;52.162;21.034;2022-12-26T13:25:42;10.60;;;7.50;;
24995;SDS011;13016;52.162;21.034;2022-12-26T13:28:12;11.00;;;7.90;;
24995;SDS011;13016;52.162;21.034;2022-12-26T13:30:43;15.50;;;9.00;;
24995;SDS011;13016;52.162;21.034;2022-12-26T13:33:11;11.20;;;7.60;;
24995;SDS011;13016;52.162;21.034;2022-12-26T13:35:48;12.00;;;7.60;;
24995;SDS011;13016;52.162;21.034;2022-12-26T13:38:17;10.80;;;7.60;;
24995;SDS011;13016;52.162;21.034;2022-12-26T13:40:56;11.20;;;7.20;;
24995;SDS011;13016;52.162;21.034;2022-12-26T13:43:25;9.70;;;6.70;;
24995;SDS011;13016;52.162;21.034;2022-12-26T13:45:51;12.50;;;7.20;;
24995;SDS011;13016;52.162;21.034;2022-12-26T13:50:49;9.70;;;6.10;;
24995;SDS011;13016;52.162;21.034;2022-12-26T13:55:48;11.70;;;6.90;;
24995;SDS011;13016;52.162;21.034;2022-12-26T13:58:21;9.30;;;6.00;;
24995;SDS011;13016;52.162;21.034;2022-12-26T14:00:56;8.60;;;6.10;;
24995;SDS011;13016;52.162;21.034;2022-12-26T14:06:21;10.10;;;6.40;;
24995;SDS011;13016;52.162;21.034;2022-12-26T14:11:45;10.70;;;6.30;;
24995;SDS011;13016;52.162;21.034;2022-12-26T14:14:51;9.90;;;6.10;;
24995;SDS011;13016;52.162;21.034;2022-12-26T14:17:33;8.30;;;5.80;;
24995;SDS011;13016;52.162;21.034;2022-12-26T14:25:58;10.00;;;6.50;;
24995;SDS011;13016;52.162;21.034;2022-12-26T14:31:36;9.90;;;6.90;;
24995;SDS011;13016;52.162;21.034;2022-12-26T14:36:51;11.30;;;6.30;;
24995;SDS011;13016;52.162;21.034;2022-12-26T14:42:19;8.80;;;5.70;;
24995;SDS011;13016;52.162;21.034;2022-12-26T14:44:50;9.40;;;6.30;;
24995;SDS011;13016;52.162;21.034;2022-12-26T14:58:25;11.20;;;8.10;;
24995;SDS011;13016;52.162;21.034;2022-12-26T15:08:54;15.90;;;8.70;;
24995;SDS011;13016;52.162;21.034;2022-12-26T15:17:25;13.60;;;9.40;;
24995;SDS011;13016;52.162;21.034;2022-12-26T15:23:07;17.10;;;10.50;;
24995;SDS011;13016;52.162;21.034;2022-12-26T15:28:55;18.50;;;10.60;;
24995;SDS011;13016;52.162;21.034;2022-12-26T15:42:54;15.00;;;10.00;;
24995;SDS011;13016;52.162;21.034;2022-12-26T15:47:58;15.00;;;10.10;;
24995;SDS011;13016;52.162;21.034;2022-12-26T15:53:25;16.10;;;10.00;;
24995;SDS011;13016;52.162;21.034;2022-12-26T15:59:06;17.70;;;10.10;;
24995;SDS011;13016;52.162;21.034;2022-12-26T16:01:52;17.60;;;9.50;;
24995;SDS011;13016;52.162;21.034;2022-12-26T16:04:38;13.60;;;9.00;;
24995;SDS011;13016;52.162;21.034;2022-12-26T16:07:20;15.30;;;9.40;;
24995;SDS011;13016;52.162;21.034;2022-12-26T16:09:52;14.80;;;9.50;;
24995;SDS011;13016;52.162;21.034;2022-12-26T16:17:34;15.00;;;9.30;;
24995;SDS011;13016;52.162;21.034;2022-12-26T16:20:15;16.50;;;9.40;;
24995;SDS011;13016;52.162;21.034;2022-12-26T16:22:52;15.30;;;9.60;;
24995;SDS011;13016;52.162;21.034;2022-12-26T16:25:21;15.90;;;8.50;;
24995;SDS011;13016;52.162;21.034;2022-12-26T16:27:50;15.10;;;8.70;;
24995;SDS011;13016;52.162;21.034;2022-12-26T16:30:19;14.70;;;8.80;;
24995;SDS011;13016;52.162;21.034;2022-12-26T16:32:47;13.50;;;8.70;;
24995;SDS011;13016;52.162;21.034;2022-12-26T16:37:53;14.20;;;9.20;;
24995;SDS011;13016;52.162;21.034;2022-12-26T16:40:22;15.30;;;9.50;;
24995;SDS011;13016;52.162;21.034;2022-12-26T16:45:43;15.80;;;9.80;;
24995;SDS011;13016;52.162;21.034;2022-12-26T16:48:12;15.60;;;8.80;;
24995;SDS011;13016;52.162;21.034;2022-12-26T16:50:44;12.60;;;8.30;;
24995;SDS011;13016;52.162;21.034;2022-12-26T16:53:13;12.40;;;8.30;;
24995;SDS011;13016;52.162;21.034;2022-12-26T16:55:42;11.50;;;7.80;;
24995;SDS011;13016;52.162;21.034;2022-12-26T16:58:20;10.80;;;6.80;;
24995;SDS011;13016;52.162;21.034;2022-12-26T17:00:53;11.00;;;7.00;;
24995;SDS011;13016;52.162;21.034;2022-12-26T17:03:23;11.10;;;6.80;;
24995;SDS011;13016;52.162;21.034;2022-12-26T17:05:52;9.80;;;6.60;;
24995;SDS011;13016;52.162;21.034;2022-12-26T17:08:18;9.90;;;6.50;;
24995;SDS011;13016;52.162;21.034;2022-12-26T17:10:47;9.40;;;6.00;;
24995;SDS011;13016;52.162;21.034;2022-12-26T17:13:16;10.30;;;6.60;;
24995;SDS011;13016;52.162;21.034;2022-12-26T17:15:49;9.90;;;6.30;;
24995;SDS011;13016;52.162;21.034;2022-12-26T17:18:30;10.10;;;5.90;;
24995;SDS011;13016;52.162;21.034;2022-12-26T17:23:57;10.20;;;6.50;;
24995;SDS011;13016;52.162;21.034;2022-12-26T17:26:29;8.10;;;5.60;;
24995;SDS011;13016;52.162;21.034;2022-12-26T17:28:55;10.00;;;6.50;;
24995;SDS011;13016;52.162;21.034;2022-12-26T17:31:23;11.60;;;7.10;;
24995;SDS011;13016;52.162;21.034;2022-12-26T17:33:56;10.50;;;7.10;;
24995;SDS011;13016;52.162;21.034;2022-12-26T17:36:23;10.20;;;6.60;;
24995;SDS011;13016;52.162;21.034;2022-12-26T17:38:54;10.00;;;6.10;;
24995;SDS011;13016;52.162;21.034;2022-12-26T17:41:20;9.40;;;6.20;;
24995;SDS011;13016;52.162;21.034;2022-12-26T17:43:45;9.40;;;5.90;;
24995;SDS011;13016;52.162;21.034;2022-12-26T17:46:12;10.20;;;6.50;;
24995;SDS011;13016;52.162;21.034;2022-12-26T17:48:40;9.80;;;6.00;;
24995;SDS011;13016;52.162;21.034;2022-12-26T17:51:07;10.50;;;7.40;;
24995;SDS011;13016;52.162;21.034;2022-12-26T17:53:39;11.10;;;7.50;;
24995;SDS011;13016;52.162;21.034;2022-12-26T17:56:07;10.40;;;6.40;;
24995;SDS011;13016;52.162;21.034;2022-12-26T17:58:38;10.00;;;6.80;;
24995;SDS011;13016;52.162;21.034;2022-12-26T18:01:03;10.60;;;7.00;;
24995;SDS011;13016;52.162;21.034;2022-12-26T18:03:28;11.10;;;7.00;;
24995;SDS011;13016;52.162;21.034;2022-12-26T18:05:54;11.50;;;7.40;;
24995;SDS011;13016;52.162;21.034;2022-12-26T18:08:41;9.30;;;6.10;;
24995;SDS011;13016;52.162;21.034;2022-12-26T18:11:07;10.40;;;6.90;;
24995;SDS011;13016;52.162;21.034;2022-12-26T18:13:34;9.90;;;6.60;;
24995;SDS011;13016;52.162;21.034;2022-12-26T18:16:00;13.20;;;6.80;;
24995;SDS011;13016;52.162;21.034;2022-12-26T18:18:34;11.20;;;7.20;;
24995;SDS011;13016;52.162;21.034;2022-12-26T18:23:27;10.10;;;7.00;;
24995;SDS011;13016;52.162;21.034;2022-12-26T18:25:54;12.70;;;8.30;;
24995;SDS011;13016;52.162;21.034;2022-12-26T18:28:38;11.90;;;7.90;;
24995;SDS011;13016;52.162;21.034;2022-12-26T18:34:22;13.40;;;8.10;;
24995;SDS011;13016;52.162;21.034;2022-12-26T18:36:51;12.10;;;8.20;;
24995;SDS011;13016;52.162;21.034;2022-12-26T18:39:19;11.30;;;7.50;;
24995;SDS011;13016;52.162;21.034;2022-12-26T18:44:47;14.00;;;8.30;;
24995;SDS011;13016;52.162;21.034;2022-12-26T18:50:16;12.00;;;7.90;;
24995;SDS011;13016;52.162;21.034;2022-12-26T19:02:22;11.50;;;7.10;;
24995;SDS011;13016;52.162;21.034;2022-12-26T19:07:46;10.80;;;7.40;;
24995;SDS011;13016;52.162;21.034;2022-12-26T19:10:13;10.40;;;6.40;;
24995;SDS011;13016;52.162;21.034;2022-12-26T19:12:48;9.60;;;6.40;;
24995;SDS011;13016;52.162;21.034;2022-12-26T19:21:20;12.60;;;7.00;;
24995;SDS011;13016;52.162;21.034;2022-12-26T19:24:15;10.10;;;6.30;;
24995;SDS011;13016;52.162;21.034;2022-12-26T19:26:47;11.60;;;6.90;;
24995;SDS011;13016;52.162;21.034;2022-12-26T19:29:13;9.10;;;6.60;;
24995;SDS011;13016;52.162;21.034;2022-12-26T19:31:47;9.30;;;6.30;;
24995;SDS011;13016;52.162;21.034;2022-12-26T19:34:13;10.40;;;6.80;;
24995;SDS011;13016;52.162;21.034;2022-12-26T19:58:38;9.60;;;6.40;;
24995;SDS011;13016;52.162;21.034;2022-12-26T20:01:07;9.90;;;7.20;;
24995;SDS011;13016;52.162;21.034;2022-12-26T20:03:34;10.70;;;6.50;;
24995;SDS011;13016;52.162;21.034;2022-12-26T20:06:06;10.60;;;6.80;;
24995;SDS011;13016;52.162;21.034;2022-12-26T20:08:33;10.30;;;6.40;;
24995;SDS011;13016;52.162;21.034;2022-12-26T20:11:02;10.20;;;6.20;;
24995;SDS011;13016;52.162;21.034;2022-12-26T20:13:29;10.10;;;6.20;;
24995;SDS011;13016;52.162;21.034;2022-12-26T20:21:54;9.20;;;6.40;;
24995;SDS011;13016;52.162;21.034;2022-12-26T20:24:20;9.40;;;6.30;;